createdAt,value
2023-05-18T00:01:14.502Z,100.00
2023-05-18T00:03:42.145Z,100.00
2023-05-18T00:06:09.955Z,100.00
2023-05-18T00:08:38.052Z,100.00
2023-05-18T00:11:06.308Z,100.00
2023-05-18T00:13:33.417Z,100.00
2023-05-18T00:16:00.472Z,100.00
2023-05-18T00:18:28.193Z,100.00
2023-05-18T00:20:58.644Z,100.00
2023-05-18T00:23:29.857Z,100.00
2023-05-18T00:25:58.847Z,100.00
2023-05-18T00:28:29.312Z,100.00
2023-05-18T00:30:57.058Z,100.00
2023-05-18T00:33:23.702Z,100.00
2023-05-18T00:35:50.658Z,100.00
2023-05-18T00:38:17.859Z,100.00
2023-05-18T00:40:44.491Z,100.00
2023-05-18T00:43:11.313Z,100.00
2023-05-18T00:45:38.346Z,100.00
2023-05-18T00:48:05.443Z,100.00
2023-05-18T00:50:32.683Z,100.00
2023-05-18T00:53:00.445Z,100.00
2023-05-18T00:55:28.550Z,100.00
2023-05-18T00:57:57.072Z,100.00
2023-05-18T01:00:24.352Z,100.00
2023-05-18T01:02:51.928Z,100.00
2023-05-18T01:05:20.020Z,100.00
2023-05-18T01:07:48.735Z,100.00
2023-05-18T01:10:18.714Z,100.00
2023-05-18T01:12:51.031Z,100.00
2023-05-18T01:15:32.959Z,100.00
2023-05-18T01:18:26.057Z,100.00
2023-05-18T01:21:19.404Z,100.00
2023-05-18T01:24:03.510Z,100.00
2023-05-18T01:26:37.445Z,100.00
2023-05-18T01:29:09.882Z,100.00
2023-05-18T01:31:36.863Z,100.00
2023-05-18T01:34:03.672Z,100.00
2023-05-18T01:36:31.519Z,100.00
2023-05-18T01:39:01.772Z,100.00
2023-05-18T01:41:32.211Z,100.00
2023-05-18T01:44:41.880Z,100.00
2023-05-18T01:47:14.663Z,100.00
2023-05-18T01:49:56.525Z,100.00
2023-05-18T01:52:37.516Z,100.00
2023-05-18T01:55:06.712Z,100.00
2023-05-18T01:57:37.102Z,100.00
2023-05-18T02:00:07.918Z,100.00
2023-05-18T02:02:35.145Z,100.00
2023-05-18T02:05:02.266Z,100.00
2023-05-18T02:07:28.766Z,100.00
2023-05-18T02:09:55.935Z,100.00
2023-05-18T02:12:22.454Z,100.00
2023-05-18T02:14:48.978Z,100.00
2023-05-18T02:17:15.499Z,100.00
2023-05-18T02:19:43.075Z,100.00
2023-05-18T02:22:09.618Z,100.00
2023-05-18T02:24:36.133Z,100.00
2023-05-18T02:27:03.026Z,100.00
2023-05-18T02:29:29.570Z,100.00
2023-05-18T02:31:56.248Z,100.00
2023-05-18T02:34:24.654Z,100.00
2023-05-18T02:36:51.273Z,100.00
2023-05-18T02:39:18.001Z,100.00
2023-05-18T02:41:44.674Z,100.00
2023-05-18T02:44:12.387Z,100.00
2023-05-18T02:46:39.126Z,100.00
2023-05-18T02:49:05.755Z,100.00
2023-05-18T02:51:32.297Z,100.00
2023-05-18T02:53:58.672Z,100.00
2023-05-18T02:56:25.204Z,100.00
2023-05-18T02:59:00.482Z,100.00
2023-05-18T03:01:27.507Z,100.00
2023-05-18T03:03:57.523Z,100.00
2023-05-18T03:06:26.290Z,100.00
2023-05-18T03:08:54.377Z,100.00
2023-05-18T03:11:22.721Z,100.00
2023-05-18T03:13:50.342Z,100.00
2023-05-18T03:16:16.876Z,100.00
2023-05-18T03:18:43.422Z,100.00
2023-05-18T03:21:10.052Z,100.00
2023-05-18T03:23:36.523Z,100.00
2023-05-18T03:26:03.930Z,100.00
2023-05-18T03:28:30.854Z,100.00
2023-05-18T03:30:57.991Z,100.00
2023-05-18T03:33:24.548Z,100.00
2023-05-18T03:35:52.237Z,100.00
2023-05-18T03:38:19.332Z,100.00
2023-05-18T03:40:46.231Z,100.00
2023-05-18T03:43:12.772Z,100.00
2023-05-18T03:45:39.211Z,100.00
2023-05-18T03:48:06.250Z,100.00
2023-05-18T03:50:33.786Z,100.00
2023-05-18T03:53:00.339Z,100.00
2023-05-18T03:55:26.899Z,100.00
2023-05-18T03:57:53.809Z,100.00
2023-05-18T04:00:20.339Z,100.00
2023-05-18T04:02:47.349Z,100.00
2023-05-18T04:05:14.024Z,100.00
2023-05-18T04:07:43.891Z,100.00
2023-05-18T04:10:12.095Z,100.00
2023-05-18T04:12:39.530Z,100.00
2023-05-18T04:15:07.101Z,100.00
2023-05-18T04:17:35.511Z,100.00
2023-05-18T04:20:04.714Z,100.00
2023-05-18T04:22:32.299Z,100.00
2023-05-18T04:24:58.748Z,100.00
2023-05-18T04:27:25.694Z,100.00
2023-05-18T04:29:52.129Z,100.00
2023-05-18T04:32:19.199Z,100.00
2023-05-18T04:34:49.669Z,100.00
2023-05-18T04:37:17.906Z,100.00
2023-05-18T04:39:44.452Z,100.00
2023-05-18T04:42:13.999Z,100.00
2023-05-18T04:44:40.648Z,100.00
2023-05-18T04:47:08.467Z,100.00
2023-05-18T04:49:36.798Z,100.00
2023-05-18T04:52:06.529Z,100.00
2023-05-18T04:54:33.053Z,100.00
2023-05-18T04:56:59.846Z,100.00
2023-05-18T04:59:26.512Z,100.00
2023-05-18T05:01:53.795Z,100.00
2023-05-18T05:04:21.933Z,100.00
2023-05-18T05:06:48.536Z,100.00
2023-05-18T05:09:15.845Z,100.00
2023-05-18T05:11:42.526Z,100.00
2023-05-18T05:14:09.205Z,100.00
2023-05-18T05:16:36.375Z,100.00
2023-05-18T05:19:03.103Z,100.00
2023-05-18T05:21:29.775Z,100.00
2023-05-18T05:23:56.271Z,100.00
2023-05-18T05:26:22.861Z,100.00
2023-05-18T05:28:49.606Z,100.00
2023-05-18T05:31:16.196Z,100.00
2023-05-18T05:33:43.033Z,100.00
2023-05-18T05:36:09.725Z,100.00
2023-05-18T05:38:36.214Z,100.00
2023-05-18T05:41:03.164Z,100.00
2023-05-18T05:43:29.688Z,100.00
2023-05-18T05:45:56.257Z,100.00
2023-05-18T05:48:22.810Z,100.00
2023-05-18T05:50:49.579Z,100.00
2023-05-18T05:53:19.622Z,100.00
2023-05-18T05:55:46.482Z,100.00
2023-05-18T05:58:13.343Z,100.00
2023-05-18T06:00:40.584Z,100.00
2023-05-18T06:03:07.918Z,100.00
2023-05-18T06:05:34.862Z,100.00
2023-05-18T06:08:01.422Z,100.00
2023-05-18T06:10:28.143Z,94.85
2023-05-18T06:12:54.674Z,100.00
2023-05-18T06:15:21.285Z,91.99
2023-05-18T06:17:47.900Z,100.00
2023-05-18T06:20:14.496Z,92.37
2023-05-18T06:22:41.168Z,92.28
2023-05-18T06:25:08.414Z,78.45
2023-05-18T06:27:35.202Z,88.22
2023-05-18T06:30:02.068Z,82.41
2023-05-18T06:32:28.749Z,84.96
2023-05-18T06:34:56.452Z,78.10
2023-05-18T06:37:22.962Z,78.62
2023-05-18T06:39:49.467Z,80.71
2023-05-18T06:42:16.056Z,76.81
2023-05-18T06:44:43.300Z,69.45
2023-05-18T06:47:09.905Z,67.15
2023-05-18T06:49:36.865Z,66.97
2023-05-18T06:52:04.508Z,64.42
2023-05-18T06:54:30.976Z,65.96
2023-05-18T06:56:57.655Z,66.52
2023-05-18T06:59:24.140Z,62.81
2023-05-18T07:01:50.836Z,65.74
2023-05-18T07:04:19.261Z,62.91
2023-05-18T07:06:46.632Z,59.07
2023-05-18T07:09:13.318Z,56.20
2023-05-18T07:11:41.399Z,57.95
2023-05-18T07:14:07.907Z,56.87
2023-05-18T07:16:35.374Z,56.65
2023-05-18T07:19:02.191Z,55.63
2023-05-18T07:21:28.820Z,57.05
2023-05-18T07:23:55.370Z,56.85
2023-05-18T07:26:22.567Z,55.72
2023-05-18T07:28:49.646Z,56.81
2023-05-18T07:31:16.610Z,54.27
2023-05-18T07:33:44.656Z,52.68
2023-05-18T07:36:11.284Z,52.66
2023-05-18T07:38:38.150Z,52.38
2023-05-18T07:41:04.735Z,56.49
2023-05-18T07:43:31.402Z,56.40
2023-05-18T07:45:57.927Z,53.81
2023-05-18T07:48:24.395Z,49.78
2023-05-18T07:50:51.543Z,53.25
2023-05-18T07:53:18.010Z,51.62
2023-05-18T07:55:44.563Z,53.88
2023-05-18T07:58:11.113Z,52.19
2023-05-18T08:00:37.798Z,52.80
2023-05-18T08:03:06.656Z,51.60
2023-05-18T08:05:33.680Z,50.25
2023-05-18T08:08:00.426Z,51.48
2023-05-18T08:10:27.157Z,48.50
2023-05-18T08:12:53.718Z,49.80
2023-05-18T08:15:20.378Z,52.41
2023-05-18T08:17:47.486Z,53.78
2023-05-18T08:20:14.085Z,48.33
2023-05-18T08:22:40.643Z,46.54
2023-05-18T08:25:07.639Z,47.45
2023-05-18T08:27:34.186Z,48.03
2023-05-18T08:30:00.825Z,49.88
2023-05-18T08:32:27.927Z,49.60
2023-05-18T08:34:54.576Z,48.96
2023-05-18T08:37:22.125Z,48.23
2023-05-18T08:39:48.664Z,52.29
2023-05-18T08:42:45.679Z,50.14
2023-05-18T08:45:46.227Z,49.01
2023-05-18T08:48:16.273Z,48.32
2023-05-18T08:50:44.689Z,47.14
2023-05-18T08:53:12.165Z,44.85
2023-05-18T08:55:42.967Z,47.33
2023-05-18T08:58:19.394Z,45.15
2023-05-18T09:00:46.178Z,49.12
2023-05-18T09:03:14.225Z,45.07
2023-05-18T09:05:41.975Z,48.52
2023-05-18T09:08:10.690Z,46.98
2023-05-18T09:10:39.891Z,45.12
2023-05-18T09:13:07.993Z,45.59
2023-05-18T09:15:35.389Z,44.18
2023-05-18T09:18:02.255Z,42.86
2023-05-18T09:20:29.752Z,42.84
2023-05-18T09:22:56.857Z,43.59
2023-05-18T09:25:27.444Z,48.07
2023-05-18T09:27:55.677Z,45.02
2023-05-18T09:30:22.491Z,46.69
2023-05-18T09:32:49.941Z,41.25
2023-05-18T09:35:17.011Z,44.59
2023-05-18T09:37:44.032Z,41.67
2023-05-18T09:40:11.059Z,43.03
2023-05-18T09:42:40.423Z,41.69
2023-05-18T09:45:25.562Z,38.73
2023-05-18T09:47:53.735Z,40.45
2023-05-18T09:50:22.395Z,38.50
2023-05-18T09:52:50.088Z,39.82
2023-05-18T09:55:19.782Z,38.32
2023-05-18T09:57:49.566Z,40.08
2023-05-18T10:00:19.713Z,37.42
2023-05-18T10:02:52.308Z,40.46
2023-05-18T10:05:23.286Z,40.25
2023-05-18T10:07:51.953Z,40.97
2023-05-18T10:10:21.033Z,40.51
2023-05-18T10:12:50.757Z,41.59
2023-05-18T10:15:23.088Z,42.90
2023-05-18T10:17:55.213Z,43.23
2023-05-18T10:20:24.319Z,40.34
2023-05-18T10:22:52.100Z,41.80
2023-05-18T10:25:22.868Z,41.06
2023-05-18T10:27:55.529Z,37.84
2023-05-18T10:30:23.548Z,37.74
2023-05-18T10:32:52.395Z,37.72
2023-05-18T10:35:21.718Z,35.12
2023-05-18T10:37:53.221Z,35.99
2023-05-18T10:40:21.363Z,36.63
2023-05-18T10:42:51.966Z,36.84
2023-05-18T10:45:19.776Z,35.22
2023-05-18T10:47:48.568Z,37.43
2023-05-18T10:50:16.683Z,37.84
2023-05-18T10:52:47.154Z,35.66
2023-05-18T10:55:15.482Z,35.80
2023-05-18T10:57:53.862Z,35.74
2023-05-18T11:00:20.936Z,36.93
2023-05-18T11:02:51.107Z,37.02
2023-05-18T11:05:25.672Z,39.52
2023-05-18T11:08:05.653Z,39.11
2023-05-18T11:10:42.464Z,35.74
2023-05-18T11:13:11.762Z,37.41
2023-05-18T11:15:54.419Z,36.69
2023-05-18T11:18:43.422Z,36.41
2023-05-18T11:21:49.780Z,35.37
2023-05-18T11:24:24.983Z,36.59
2023-05-18T11:27:00.990Z,38.80
2023-05-18T11:29:32.689Z,35.48
2023-05-18T11:32:00.458Z,37.99
2023-05-18T11:34:46.372Z,37.98
2023-05-18T11:37:16.296Z,36.50
2023-05-18T11:39:59.666Z,37.74
2023-05-18T11:42:36.772Z,38.29
2023-05-18T11:45:13.148Z,35.49
2023-05-18T11:47:40.913Z,36.13
2023-05-18T11:50:12.075Z,36.76
2023-05-18T11:52:52.367Z,37.68
2023-05-18T11:55:21.065Z,35.45
2023-05-18T11:57:52.393Z,37.02
2023-05-18T12:00:20.498Z,37.40
2023-05-18T12:02:48.819Z,36.08
2023-05-18T12:05:16.199Z,39.25
2023-05-18T12:07:44.679Z,37.21
2023-05-18T12:10:15.003Z,38.31
2023-05-18T12:12:42.292Z,35.82
2023-05-18T12:15:11.727Z,34.73
2023-05-18T12:17:41.070Z,37.31
2023-05-18T12:20:11.610Z,37.43
2023-05-18T12:22:42.008Z,34.33
2023-05-18T12:25:09.809Z,38.94
2023-05-18T12:27:41.343Z,39.92
2023-05-18T12:30:17.294Z,36.25
2023-05-18T12:32:49.108Z,38.71
2023-05-18T12:35:15.853Z,36.01
2023-05-18T12:37:45.842Z,36.12
2023-05-18T12:40:16.924Z,37.26
2023-05-18T12:42:54.048Z,35.02
2023-05-18T12:45:25.880Z,38.18
2023-05-18T12:47:54.604Z,40.32
2023-05-18T12:50:24.878Z,34.73
2023-05-18T12:52:51.932Z,35.48
2023-05-18T12:55:22.254Z,38.38
2023-05-18T12:58:17.973Z,35.95
2023-05-18T13:00:48.296Z,38.20
2023-05-18T13:03:21.674Z,37.16
2023-05-18T13:06:04.734Z,37.90
2023-05-18T13:08:33.412Z,35.76
2023-05-18T13:11:13.669Z,35.36
2023-05-18T13:14:02.173Z,33.80
2023-05-18T13:16:30.301Z,36.03
2023-05-18T13:19:06.593Z,36.80
2023-05-18T13:21:34.695Z,35.51
2023-05-18T13:24:02.259Z,36.69
2023-05-18T13:26:29.294Z,35.28
2023-05-18T13:28:57.526Z,36.40
2023-05-18T13:31:25.080Z,35.68
2023-05-18T13:33:52.632Z,34.94
2023-05-18T13:36:19.383Z,37.12
2023-05-18T13:38:46.056Z,37.60
2023-05-18T13:41:14.973Z,35.77
2023-05-18T13:43:42.762Z,36.07
2023-05-18T13:46:09.521Z,35.20
2023-05-18T13:48:36.145Z,37.05
2023-05-18T13:51:02.726Z,36.23
2023-05-18T13:53:29.469Z,38.26
2023-05-18T13:55:56.060Z,36.47
2023-05-18T13:58:23.735Z,35.74
2023-05-18T14:00:50.428Z,38.29
2023-05-18T14:03:17.629Z,38.40
2023-05-18T14:05:44.529Z,36.35
2023-05-18T14:08:11.084Z,37.50
2023-05-18T14:10:37.673Z,36.53
2023-05-18T14:13:04.259Z,38.14
2023-05-18T14:15:30.799Z,39.94
2023-05-18T14:17:57.385Z,38.67
2023-05-18T14:20:23.929Z,38.08
2023-05-18T14:22:50.483Z,36.54
2023-05-18T14:25:17.235Z,36.67
2023-05-18T14:27:43.804Z,35.24
2023-05-18T14:30:10.956Z,36.41
2023-05-18T14:32:37.586Z,37.20
2023-05-18T14:35:04.786Z,37.62
2023-05-18T14:37:32.744Z,35.15
2023-05-18T14:39:59.301Z,39.86
2023-05-18T14:42:26.242Z,37.65
2023-05-18T14:44:52.829Z,38.54
2023-05-18T14:47:19.424Z,35.31
2023-05-18T14:49:46.033Z,33.82
2023-05-18T14:52:12.533Z,38.90
2023-05-18T14:54:40.297Z,36.46
2023-05-18T14:57:06.970Z,39.04
2023-05-18T14:59:33.540Z,41.39
2023-05-18T15:02:00.514Z,38.21
2023-05-18T15:04:27.022Z,38.75
2023-05-18T15:06:53.527Z,38.74
2023-05-18T15:09:20.317Z,36.56
2023-05-18T15:11:47.097Z,37.29
2023-05-18T15:14:13.672Z,38.28
2023-05-18T15:16:40.309Z,38.06
2023-05-18T15:19:06.974Z,39.79
2023-05-18T15:21:33.522Z,39.02
2023-05-18T15:24:00.107Z,39.89
2023-05-18T15:26:27.510Z,40.22
2023-05-18T15:28:54.129Z,39.27
2023-05-18T15:31:20.910Z,39.18
2023-05-18T15:33:47.653Z,39.04
2023-05-18T15:36:14.225Z,39.72
2023-05-18T15:38:41.012Z,39.20
2023-05-18T15:41:07.539Z,38.49
2023-05-18T15:43:36.376Z,39.30
2023-05-18T15:46:04.306Z,40.35
2023-05-18T15:48:30.922Z,39.57
2023-05-18T15:50:57.543Z,40.21
2023-05-18T15:53:24.220Z,39.97
2023-05-18T15:55:55.902Z,39.98
2023-05-18T15:58:25.105Z,38.41
2023-05-18T16:00:51.631Z,37.78
2023-05-18T16:03:19.092Z,39.73
2023-05-18T16:05:45.808Z,41.66
2023-05-18T16:08:12.524Z,41.94
2023-05-18T16:10:39.073Z,38.46
2023-05-18T16:13:05.962Z,38.22
2023-05-18T16:15:34.707Z,38.84
2023-05-18T16:18:02.029Z,41.53
2023-05-18T16:20:29.654Z,38.88
2023-05-18T16:22:56.447Z,40.96
2023-05-18T16:25:23.523Z,41.31
2023-05-18T16:27:50.683Z,41.67
2023-05-18T16:30:17.487Z,43.54
2023-05-18T16:32:44.459Z,42.63
2023-05-18T16:35:12.461Z,43.39
2023-05-18T16:37:39.141Z,40.20
2023-05-18T16:40:06.909Z,41.80
2023-05-18T16:42:34.309Z,42.19
2023-05-18T16:45:00.912Z,42.09
2023-05-18T16:47:27.615Z,41.12
2023-05-18T16:49:54.540Z,41.57
2023-05-18T16:52:21.384Z,42.42
2023-05-18T16:54:48.067Z,43.08
2023-05-18T16:57:15.063Z,41.03
2023-05-18T16:59:42.614Z,41.34
2023-05-18T17:02:13.174Z,43.01
2023-05-18T17:04:41.525Z,41.54
2023-05-18T17:07:09.918Z,43.60
2023-05-18T17:09:40.013Z,43.19
2023-05-18T17:12:08.068Z,43.99
2023-05-18T17:14:34.778Z,43.24
2023-05-18T17:17:01.408Z,44.05
2023-05-18T17:19:27.955Z,42.61
2023-05-18T17:21:54.691Z,41.75
2023-05-18T17:24:21.186Z,42.82
2023-05-18T17:26:47.742Z,40.56
2023-05-18T17:29:17.127Z,42.05
2023-05-18T17:31:45.785Z,41.87
2023-05-18T17:34:12.537Z,43.67
2023-05-18T17:36:39.207Z,44.35
2023-05-18T17:39:05.817Z,45.25
2023-05-18T17:41:33.093Z,42.91
2023-05-18T17:43:59.849Z,43.53
2023-05-18T17:46:27.282Z,42.55
2023-05-18T17:48:54.024Z,44.90
2023-05-18T17:51:20.959Z,43.10
2023-05-18T17:53:47.534Z,44.17
2023-05-18T17:56:14.094Z,42.91
2023-05-18T17:58:40.812Z,44.64
2023-05-18T18:01:08.837Z,44.51
2023-05-18T18:03:36.668Z,44.53
2023-05-18T18:06:03.457Z,43.86
2023-05-18T18:08:30.235Z,44.40
2023-05-18T18:10:57.020Z,45.91
2023-05-18T18:13:24.360Z,45.06
2023-05-18T18:15:51.004Z,47.12
2023-05-18T18:18:17.508Z,45.72
2023-05-18T18:20:44.118Z,47.08
2023-05-18T18:23:10.886Z,46.08
2023-05-18T18:25:37.555Z,45.99
2023-05-18T18:28:04.162Z,44.98
2023-05-18T18:30:30.895Z,44.71
2023-05-18T18:32:57.705Z,45.06
2023-05-18T18:35:24.266Z,46.76
2023-05-18T18:37:51.383Z,46.00
2023-05-18T18:40:18.523Z,46.04
2023-05-18T18:42:45.082Z,46.38
2023-05-18T18:45:11.706Z,47.62
2023-05-18T18:47:39.156Z,50.51
2023-05-18T18:50:07.230Z,47.27
2023-05-18T18:52:33.759Z,47.57
2023-05-18T18:55:00.321Z,50.10
2023-05-18T18:57:26.887Z,47.98
2023-05-18T18:59:53.441Z,46.94
2023-05-18T19:02:21.167Z,47.49
2023-05-18T19:04:48.318Z,48.84
2023-05-18T19:07:14.868Z,48.32
2023-05-18T19:09:41.495Z,51.59
2023-05-18T19:12:08.698Z,49.25
2023-05-18T19:14:35.314Z,52.26
2023-05-18T19:17:01.802Z,53.49
2023-05-18T19:19:29.508Z,52.96
2023-05-18T19:21:56.226Z,53.99
2023-05-18T19:24:22.729Z,53.67
2023-05-18T19:26:49.283Z,56.06
2023-05-18T19:29:16.020Z,54.95
2023-05-18T19:31:42.552Z,56.34
2023-05-18T19:34:09.070Z,55.86
2023-05-18T19:36:35.784Z,55.60
2023-05-18T19:39:02.395Z,59.29
2023-05-18T19:41:28.895Z,58.95
2023-05-18T19:43:55.414Z,59.50
2023-05-18T19:46:22.233Z,58.36
2023-05-18T19:48:49.219Z,58.46
2023-05-18T19:51:15.725Z,61.73
2023-05-18T19:53:43.351Z,62.03
2023-05-18T19:56:10.050Z,67.39
2023-05-18T19:58:36.622Z,64.99
2023-05-18T20:01:04.166Z,67.69
2023-05-18T20:03:30.692Z,65.10
2023-05-18T20:05:58.013Z,64.60
2023-05-18T20:08:24.691Z,65.08
2023-05-18T20:10:52.420Z,64.93
2023-05-18T20:13:19.186Z,65.07
2023-05-18T20:15:46.900Z,67.39
2023-05-18T20:18:13.517Z,65.20
2023-05-18T20:20:41.106Z,70.17
2023-05-18T20:23:10.717Z,71.21
2023-05-18T20:25:38.057Z,70.91
2023-05-18T20:28:08.301Z,71.71
2023-05-18T20:30:34.962Z,73.61
2023-05-18T20:33:04.001Z,70.37
2023-05-18T20:35:31.553Z,76.50
2023-05-18T20:37:59.446Z,77.22
2023-05-18T20:40:30.648Z,76.38
2023-05-18T20:43:00.591Z,78.11
2023-05-18T20:45:29.797Z,80.62
2023-05-18T20:47:57.613Z,80.33
2023-05-18T20:50:24.174Z,81.14
2023-05-18T20:52:51.791Z,81.89
2023-05-18T20:55:19.820Z,83.56
2023-05-18T20:57:48.984Z,86.36
2023-05-18T21:00:17.381Z,87.93
2023-05-18T21:02:46.861Z,84.18
2023-05-18T21:05:14.928Z,94.23
2023-05-18T21:07:41.444Z,93.60
2023-05-18T21:10:10.450Z,89.03
2023-05-18T21:12:37.556Z,88.83
2023-05-18T21:15:04.677Z,88.13
2023-05-18T21:17:32.015Z,91.91
2023-05-18T21:19:58.832Z,99.28
2023-05-18T21:22:25.458Z,98.49
2023-05-18T21:24:51.980Z,95.22
2023-05-18T21:27:18.674Z,95.10
2023-05-18T21:29:45.377Z,94.99
2023-05-18T21:32:12.457Z,98.72
2023-05-18T21:34:41.140Z,98.17
2023-05-18T21:37:09.477Z,94.24
2023-05-18T21:39:36.146Z,96.12
2023-05-18T21:42:03.314Z,93.28
2023-05-18T21:44:29.827Z,100.00
2023-05-18T21:46:57.810Z,96.86
2023-05-18T21:49:24.494Z,99.39
2023-05-18T21:51:51.291Z,100.00
2023-05-18T21:54:17.938Z,100.00
2023-05-18T21:56:44.786Z,100.00
2023-05-18T21:59:11.265Z,100.00
2023-05-18T22:01:37.778Z,98.13
2023-05-18T22:04:04.547Z,100.00
2023-05-18T22:06:31.153Z,100.00
2023-05-18T22:08:57.718Z,99.35
2023-05-18T22:11:24.516Z,100.00
2023-05-18T22:13:51.407Z,100.00
2023-05-18T22:16:17.944Z,100.00
2023-05-18T22:18:44.458Z,100.00
2023-05-18T22:21:11.220Z,100.00
2023-05-18T22:23:39.054Z,100.00
2023-05-18T22:26:05.762Z,100.00
2023-05-18T22:28:32.271Z,100.00
2023-05-18T22:30:58.824Z,100.00
2023-05-18T22:33:25.492Z,100.00
2023-05-18T22:35:52.137Z,100.00
2023-05-18T22:38:18.799Z,100.00
2023-05-18T22:40:45.551Z,100.00
2023-05-18T22:43:12.331Z,100.00
2023-05-18T22:45:39.065Z,100.00
2023-05-18T22:48:06.199Z,100.00
2023-05-18T22:50:33.060Z,100.00
2023-05-18T22:53:02.199Z,100.00
2023-05-18T22:55:28.930Z,100.00
2023-05-18T22:57:55.513Z,100.00
2023-05-18T23:00:22.236Z,100.00
2023-05-18T23:02:48.802Z,100.00
2023-05-18T23:05:15.931Z,100.00
2023-05-18T23:07:42.539Z,100.00
2023-05-18T23:10:11.524Z,100.00
2023-05-18T23:12:39.513Z,100.00
2023-05-18T23:15:07.390Z,100.00
2023-05-18T23:17:34.599Z,100.00
2023-05-18T23:20:04.521Z,100.00
2023-05-18T23:22:31.021Z,100.00
2023-05-18T23:24:57.500Z,100.00
2023-05-18T23:27:23.935Z,100.00
2023-05-18T23:29:50.509Z,100.00
2023-05-18T23:32:17.032Z,100.00
2023-05-18T23:34:44.447Z,100.00
2023-05-18T23:37:11.508Z,100.00
2023-05-18T23:39:41.601Z,100.00
2023-05-18T23:42:08.779Z,100.00
2023-05-18T23:44:35.898Z,100.00
2023-05-18T23:47:03.197Z,100.00
2023-05-18T23:49:30.382Z,100.00
2023-05-18T23:52:02.584Z,100.00
2023-05-18T23:54:30.091Z,100.00
2023-05-18T23:56:58.075Z,100.00
2023-05-18T23:59:25.578Z,100.00
